createdAt,value
2022-09-18T00:00:50.995Z,0.097440004
2022-09-18T00:01:51.075Z,0.081200004
2022-09-18T00:02:45.310Z,0.064960003
2022-09-18T00:03:45.424Z,0.056840003
2022-09-18T00:04:51.072Z,0.048720002
2022-09-18T00:05:49.321Z,0.097440004
2022-09-18T00:06:52.728Z,0.089320004
2022-09-18T00:07:48.052Z,0.081200004
2022-09-18T00:09:48.269Z,0.097440004
2022-09-18T00:10:44.167Z,0.097440004
2022-09-18T00:11:45.844Z,0.016240001
2022-09-18T00:12:41.505Z,0.064960003
2022-09-18T00:13:43.887Z,0.081200004
2022-09-18T00:14:40.309Z,0.138040006
2022-09-18T00:15:44.641Z,0.154280007
2022-09-18T00:16:47.147Z,0.105560005
2022-09-18T00:17:47.635Z,0.056840003
2022-09-18T00:18:49.372Z,0.064960003
2022-09-18T00:21:52.895Z,0.089320004
2022-09-18T00:22:54.835Z,0.138040006
2022-09-18T00:24:51.980Z,0.056840003
2022-09-18T00:25:57.180Z,0.064960003
2022-09-18T00:26:55.705Z,0.121800005
2022-09-18T00:27:57.661Z,0.121800005
2022-09-18T00:29:53.502Z,0.097440004
2022-09-18T00:30:55.847Z,0.073080003
2022-09-18T00:31:55.180Z,0.073080003
2022-09-18T00:32:57.403Z,0.073080003
2022-09-18T00:34:53.590Z,0.081200004
2022-09-18T00:35:52.287Z,0.097440004
2022-09-18T00:36:49.068Z,0.097440004
2022-09-18T00:37:53.882Z,0.170520008
2022-09-18T00:39:50.358Z,0.121800005
2022-09-18T00:40:48.060Z,0.113680005
2022-09-18T00:41:49.151Z,0.056840003
2022-09-18T00:42:51.155Z,0.129920006
2022-09-18T00:43:49.305Z,0.056840003
2022-09-18T00:44:52.335Z,0.016240001
2022-09-18T00:45:49.482Z,0.129920006
2022-09-18T00:46:49.289Z,0.121800005
2022-09-18T00:47:51.244Z,0.129920006
2022-09-18T00:49:43.817Z,0.146160007
2022-09-18T00:50:48.638Z,0.162400007
2022-09-18T00:51:45.007Z,0.113680005
2022-09-18T00:52:48.006Z,0.064960003
2022-09-18T00:53:40.535Z,0.121800005
2022-09-18T00:55:37.763Z,0.113680005
2022-09-18T00:56:37.506Z,0.064960003
2022-09-18T00:57:33.588Z,0.040600002
2022-09-18T01:00:43.877Z,0.040600002
2022-09-18T01:01:49.489Z,0.105560005
2022-09-18T01:02:51.231Z,0.097440004
2022-09-18T01:03:50.512Z,0.048720002
2022-09-18T01:04:53.595Z,0.105560005
2022-09-18T01:05:46.301Z,0.016240001
2022-09-18T01:06:48.981Z,0.089320004
2022-09-18T01:07:46.942Z,0.073080003
2022-09-18T01:08:48.287Z,0.089320004
2022-09-18T01:09:51.089Z,0.081200004
2022-09-18T01:10:53.143Z,0.064960003
2022-09-18T01:11:48.467Z,0.081200004
2022-09-18T01:12:48.356Z,0.048720002
2022-09-18T01:13:51.155Z,0.129920006
2022-09-18T01:14:57.286Z,0.073080003
2022-09-18T01:15:57.588Z,0.056840003
2022-09-18T01:16:53.749Z,0.097440004
2022-09-18T01:17:56.812Z,0.097440004
2022-09-18T01:19:56.085Z,0.121800005
2022-09-18T01:20:49.129Z,0.073080003
2022-09-18T01:21:52.288Z,0.064960003
2022-09-18T01:22:48.650Z,0.097440004
2022-09-18T01:24:44.339Z,0.016240001
2022-09-18T01:25:43.155Z,0.073080003
2022-09-18T01:26:43.077Z,0.089320004
2022-09-18T01:27:43.416Z,0.089320004
2022-09-18T01:28:48.370Z,0.073080003
2022-09-18T01:30:41.602Z,0.089320004
2022-09-18T01:31:37.957Z,0.146160007
2022-09-18T01:32:41.023Z,0.097440004
2022-09-18T01:34:47.931Z,0.073080003
2022-09-18T01:35:46.916Z,0.048720002
2022-09-18T01:36:48.624Z,0.048720002
2022-09-18T01:37:45.733Z,0.097440004
2022-09-18T01:38:54.707Z,0.024360001
2022-09-18T01:39:52.708Z,0.089320004
2022-09-18T01:40:48.403Z,0.186760008
2022-09-18T01:41:54.133Z,0.032480001
2022-09-18T01:42:52.105Z,0.121800005
2022-09-18T01:43:53.700Z,0.138040006
2022-09-18T01:44:52.919Z,0.048720002
2022-09-18T01:45:53.287Z,0.121800005
2022-09-18T01:46:52.522Z,0.064960003
2022-09-18T01:47:52.577Z,0.064960003
2022-09-18T01:48:48.944Z,0.048720002
2022-09-18T01:49:51.530Z,0.113680005
2022-09-18T01:50:46.717Z,0.121800005
2022-09-18T01:51:52.743Z,0.073080003
2022-09-18T01:52:48.331Z,0.129920006
2022-09-18T01:54:55.862Z,0.146160007
2022-09-18T01:55:51.616Z,0.121800005
2022-09-18T01:56:52.827Z,0.073080003
2022-09-18T01:57:49.743Z,0.097440004
2022-09-18T01:59:49.230Z,0.121800005
2022-09-18T02:00:50.231Z,0.113680005
2022-09-18T02:01:48.446Z,0.064960003
2022-09-18T02:02:53.913Z,0.081200004
2022-09-18T02:04:53.683Z,0.056840003
2022-09-18T02:07:20.021Z,0.097440004
2022-09-18T02:08:18.933Z,0.138040006
2022-09-18T02:10:20.400Z,0.081200004
2022-09-18T02:11:19.387Z,0.097440004
2022-09-18T02:12:13.800Z,0.032480001
2022-09-18T02:13:12.890Z,0.089320004
2022-09-18T02:14:09.907Z,0.081200004
2022-09-18T02:15:12.477Z,0.097440004
2022-09-18T02:16:08.968Z,0.032480001
2022-09-18T02:17:17.569Z,0.089320004
2022-09-18T02:18:10.677Z,0.194880009
2022-09-18T02:19:12.730Z,0.097440004
2022-09-18T02:20:17.732Z,0.121800005
2022-09-18T02:21:17.230Z,0.040600002
2022-09-18T02:22:12.678Z,0.064960003
2022-09-18T02:23:16.360Z,0.032480001
2022-09-18T02:25:11.006Z,0.097440004
2022-09-18T02:26:08.966Z,0.089320004
2022-09-18T02:27:10.781Z,0.056840003
2022-09-18T02:28:14.189Z,0.032480001
2022-09-18T02:29:23.683Z,0.056840003
2022-09-18T02:30:15.386Z,0.146160007
2022-09-18T02:31:20.166Z,0.129920006
2022-09-18T02:32:22.469Z,0.113680005
2022-09-18T02:33:21.458Z,0.089320004
2022-09-18T02:34:20.484Z,0.032480001
2022-09-18T02:35:15.220Z,0.073080003
2022-09-18T02:36:17.078Z,0.203000009
2022-09-18T02:37:16.134Z,0.097440004
2022-09-18T02:38:15.827Z,0.016240001
2022-09-18T02:40:16.866Z,0.056840003
2022-09-18T02:41:12.177Z,0.073080003
2022-09-18T02:42:15.432Z,0.162400007
2022-09-18T02:43:10.673Z,0.105560005
2022-09-18T02:44:11.567Z,0.138040006
2022-09-18T02:45:08.003Z,0.089320004
2022-09-18T02:46:11.520Z,0.040600002
2022-09-18T02:47:07.696Z,0.097440004
2022-09-18T02:48:12.128Z,0.105560005
2022-09-18T02:50:03.550Z,0.178640008
2022-09-18T02:50:57.896Z,0.048720002
2022-09-18T02:52:00.589Z,0.040600002
2022-09-18T02:53:04.097Z,0.056840003
2022-09-18T02:54:58.621Z,0.064960003
2022-09-18T02:57:23.925Z,0.056840003
2022-09-18T02:58:25.313Z,0.105560005
2022-09-18T03:00:24.692Z,0.064960003
2022-09-18T03:01:25.644Z,0.089320004
2022-09-18T03:02:25.288Z,0.056840003
2022-09-18T03:03:26.835Z,0.073080003
2022-09-18T03:05:22.261Z,0.032480001
2022-09-18T03:06:16.558Z,0.121800005
2022-09-18T03:07:23.400Z,0.024360001
2022-09-18T03:08:18.797Z,0.00812
2022-09-18T03:10:15.715Z,0.089320004
2022-09-18T03:11:16.780Z,0.129920006
2022-09-18T03:12:14.786Z,0.056840003
2022-09-18T03:13:11.371Z,0.097440004
2022-09-18T03:15:09.649Z,0.00812
2022-09-18T03:16:12.558Z,0.089320004
2022-09-18T03:17:07.973Z,0.056840003
2022-09-18T03:18:10.725Z,0.113680005
2022-09-18T03:20:04.906Z,0.154280007
2022-09-18T03:21:01.925Z,0.113680005
2022-09-18T03:22:01.026Z,0.056840003
2022-09-18T03:22:58.870Z,0.040600002
2022-09-18T03:24:53.772Z,0.121800005
2022-09-18T03:26:02.919Z,0.121800005
2022-09-18T03:27:36.057Z,0.064960003
2022-09-18T03:30:35.480Z,0.121800005
2022-09-18T03:31:33.793Z,0.081200004
2022-09-18T03:32:32.913Z,0.105560005
2022-09-18T03:33:28.049Z,0.073080003
2022-09-18T03:34:28.113Z,0.056840003
2022-09-18T03:35:29.833Z,0.032480001
2022-09-18T03:36:23.562Z,0.056840003
2022-09-18T03:37:23.384Z,0.064960003
2022-09-18T03:38:17.083Z,0.056840003
2022-09-18T03:39:18.675Z,0.056840003
2022-09-18T03:40:12.794Z,0.073080003
2022-09-18T03:41:11.725Z,0.113680005
2022-09-18T03:42:06.061Z,0.056840003
2022-09-18T03:43:07.596Z,0.056840003
2022-09-18T03:44:57.651Z,0.105560005
2022-09-18T03:45:58.521Z,0
2022-09-18T03:46:59.426Z,0.113680005
2022-09-18T03:47:50.319Z,0.048720002
2022-09-18T03:48:51.354Z,0.113680005
2022-09-18T03:50:42.992Z,0.073080003
2022-09-18T03:51:41.926Z,0.089320004
2022-09-18T03:52:36.390Z,0.073080003
2022-09-18T03:53:34.368Z,0.081200004
2022-09-18T03:54:28.728Z,0.024360001
2022-09-18T03:55:24.152Z,0.105560005
2022-09-18T03:56:25.126Z,0.016240001
2022-09-18T03:57:21.500Z,0.081200004
2022-09-18T03:58:29.048Z,0.032480001
2022-09-18T04:00:22.312Z,0.056840003
2022-09-18T04:01:21.694Z,0.064960003
2022-09-18T04:02:22.050Z,0.089320004
2022-09-18T04:03:13.340Z,0.048720002
2022-09-18T04:05:12.580Z,0.073080003
2022-09-18T04:06:12.257Z,0.138040006
2022-09-18T04:07:10.075Z,0.081200004
2022-09-18T04:10:16.816Z,0.073080003
2022-09-18T04:11:15.461Z,0.048720002
2022-09-18T04:12:15.886Z,0.089320004
2022-09-18T04:13:11.279Z,0.081200004
2022-09-18T04:15:13.619Z,0.105560005
2022-09-18T04:16:14.773Z,0.089320004
2022-09-18T04:17:10.411Z,0.129920006
2022-09-18T04:18:15.699Z,0.162400007
2022-09-18T04:19:18.814Z,0.089320004
2022-09-18T04:20:21.174Z,0.081200004
2022-09-18T04:21:17.805Z,0.138040006
2022-09-18T04:22:18.118Z,0.129920006
2022-09-18T04:23:16.670Z,0.121800005
2022-09-18T04:24:18.510Z,0.105560005
2022-09-18T04:25:17.519Z,0.089320004
2022-09-18T04:26:23.221Z,0.024360001
2022-09-18T04:27:25.380Z,0.121800005
2022-09-18T04:28:19.545Z,0.089320004
2022-09-18T04:29:21.707Z,0.162400007
2022-09-18T04:30:16.117Z,0.097440004
2022-09-18T04:31:23.013Z,0.097440004
2022-09-18T04:32:13.684Z,0.089320004
2022-09-18T04:33:11.294Z,0.105560005
2022-09-18T04:35:19.319Z,0.016240001
2022-09-18T04:36:21.681Z,0.113680005
2022-09-18T04:37:19.355Z,0.032480001
2022-09-18T04:38:19.010Z,0.056840003
2022-09-18T04:40:18.084Z,0.105560005
2022-09-18T04:41:23.859Z,0.032480001
2022-09-18T04:42:17.573Z,0.105560005
2022-09-18T04:43:26.859Z,0.040600002
2022-09-18T04:45:20.361Z,0.040600002
2022-09-18T04:46:22.237Z,0.040600002
2022-09-18T04:48:49.932Z,0.113680005
2022-09-18T04:49:50.089Z,0.032480001
2022-09-18T04:50:49.909Z,0.081200004
2022-09-18T04:51:45.263Z,0.081200004
2022-09-18T04:52:45.808Z,0.105560005
2022-09-18T04:53:40.974Z,0.056840003
2022-09-18T04:55:36.695Z,0.105560005
2022-09-18T04:56:35.589Z,0.081200004
2022-09-18T04:57:32.668Z,0.024360001
2022-09-18T04:58:33.574Z,0.129920006
2022-09-18T05:00:32.405Z,0.073080003
2022-09-18T05:01:30.569Z,0.024360001
2022-09-18T05:02:25.845Z,0.138040006
2022-09-18T05:03:31.482Z,0.064960003
2022-09-18T05:04:27.000Z,0.064960003
2022-09-18T05:05:28.674Z,0.089320004
2022-09-18T05:06:24.882Z,0.138040006
2022-09-18T05:07:27.178Z,0.064960003
2022-09-18T05:08:19.631Z,0.113680005
2022-09-18T05:09:24.053Z,0.064960003
2022-09-18T05:10:22.107Z,0.040600002
2022-09-18T05:11:27.965Z,0.121800005
2022-09-18T05:12:23.788Z,0.081200004
2022-09-18T05:13:27.273Z,0.121800005
2022-09-18T05:14:20.234Z,0.081200004
2022-09-18T05:15:24.370Z,0.032480001
2022-09-18T05:16:19.666Z,0.162400007
2022-09-18T05:17:23.874Z,0.211120009
2022-09-18T05:18:15.947Z,0.064960003
2022-09-18T05:19:17.894Z,0.113680005
2022-09-18T05:20:10.968Z,0.186760008
2022-09-18T05:21:11.177Z,0.056840003
2022-09-18T05:22:10.273Z,0.138040006
2022-09-18T05:23:08.442Z,0.170520008
2022-09-18T05:24:12.512Z,0.129920006
2022-09-18T05:25:07.539Z,0.105560005
2022-09-18T05:26:09.387Z,0.129920006
2022-09-18T05:27:03.338Z,0.064960003
2022-09-18T05:28:08.054Z,0.105560005
2022-09-18T05:31:16.880Z,0.194880009
2022-09-18T05:32:18.928Z,0.081200004
2022-09-18T05:33:20.199Z,0.064960003
2022-09-18T05:35:19.267Z,0.097440004
2022-09-18T05:36:15.692Z,0.129920006
2022-09-18T05:37:19.080Z,0.081200004
2022-09-18T05:38:20.414Z,0.162400007
2022-09-18T05:39:17.947Z,0.105560005
2022-09-18T05:40:16.774Z,0.113680005
2022-09-18T05:41:13.448Z,0.056840003
2022-09-18T05:42:17.737Z,0.105560005
2022-09-18T05:43:15.903Z,0.113680005
2022-09-18T05:45:11.961Z,0.146160007
2022-09-18T05:46:12.424Z,0.154280007
2022-09-18T05:47:07.959Z,0.194880009
2022-09-18T05:48:09.863Z,0.138040006
2022-09-18T05:49:05.227Z,0.211120009
2022-09-18T05:50:05.603Z,0.113680005
2022-09-18T05:51:02.964Z,0.129920006
2022-09-18T05:52:02.747Z,0.235480011
2022-09-18T05:53:00.842Z,0.146160007
2022-09-18T05:54:58.412Z,0.138040006
2022-09-18T05:56:01.519Z,0.186760008
2022-09-18T05:56:54.339Z,0.235480011
2022-09-18T05:57:56.909Z,0.243600011
2022-09-18T05:58:51.151Z,0.129920006
2022-09-18T06:00:03.237Z,0.073080003
2022-09-18T06:00:58.789Z,0.121800005
2022-09-18T06:01:59.667Z,0.146160007
2022-09-18T06:02:54.627Z,0.113680005
2022-09-18T06:04:51.804Z,0.21924001
2022-09-18T06:05:54.239Z,0.121800005
2022-09-18T06:06:49.833Z,0.138040006
2022-09-18T06:07:49.671Z,0.284200013
2022-09-18T06:08:47.826Z,0.170520008
2022-09-18T06:09:51.927Z,0.170520008
2022-09-18T06:10:47.146Z,0.22736001
2022-09-18T06:11:49.563Z,0.349160016
2022-09-18T06:12:46.821Z,0.154280007
2022-09-18T06:13:50.045Z,0.251720011
2022-09-18T06:15:46.366Z,0.292320013
2022-09-18T06:18:13.953Z,0.178640008
2022-09-18T06:20:14.115Z,0.121800005
2022-09-18T06:21:08.968Z,0.129920006
2022-09-18T06:22:09.369Z,0.154280007
2022-09-18T06:23:04.881Z,0.194880009
2022-09-18T06:24:05.606Z,0.170520008
2022-09-18T06:25:01.039Z,0.194880009
2022-09-18T06:26:00.341Z,0.259840012
2022-09-18T06:26:54.750Z,0.178640008
2022-09-18T06:27:56.793Z,0.284200013
2022-09-18T06:28:48.870Z,0.324800014
2022-09-18T06:29:48.311Z,0.316680014
2022-09-18T06:30:43.501Z,0.267960012
2022-09-18T06:31:43.394Z,0.349160016
2022-09-18T06:32:37.743Z,0.316680014
2022-09-18T06:33:38.222Z,0.381640017
2022-09-18T06:34:38.520Z,0.357280016
2022-09-18T06:34:38.972Z,0.357280016
2022-09-18T06:35:35.653Z,0.397880018
2022-09-18T06:36:31.926Z,0.267960012
2022-09-18T06:37:33.361Z,0.349160016
2022-09-18T06:38:27.574Z,0.389760017
2022-09-18T06:39:28.221Z,0.349160016
2022-09-18T06:40:24.798Z,0.292320013
2022-09-18T06:41:26.170Z,0.349160016
2022-09-18T06:42:21.364Z,0.324800014
2022-09-18T06:43:26.380Z,0.349160016
2022-09-18T06:44:18.197Z,0.235480011
2022-09-18T06:45:17.471Z,0.22736001
2022-09-18T06:46:13.006Z,0.235480011
2022-09-18T06:47:11.382Z,0.121800005
2022-09-18T06:48:09.524Z,0.056840003
2022-09-18T06:49:04.516Z,0.146160007
2022-09-18T06:50:07.388Z,0.113680005
2022-09-18T06:51:01.745Z,0.21924001
2022-09-18T06:52:03.575Z,0.194880009
2022-09-18T06:52:56.972Z,0.243600011
2022-09-18T06:53:58.134Z,0.276080012
2022-09-18T06:54:54.026Z,0.235480011
2022-09-18T06:55:57.683Z,0.267960012
2022-09-18T06:56:57.022Z,0.22736001
2022-09-18T06:57:49.054Z,0.365400016
2022-09-18T06:58:50.349Z,0.397880018
2022-09-18T07:00:44.993Z,0.397880018
2022-09-18T07:01:39.885Z,0.44660002
2022-09-18T07:03:15.733Z,0.43848002
2022-09-18T07:05:47.569Z,0.308560014
2022-09-18T07:06:46.581Z,0.406000018
2022-09-18T07:07:47.163Z,0.365400016
2022-09-18T07:08:43.439Z,0.276080012
2022-09-18T07:10:42.612Z,0.300440013
2022-09-18T07:11:44.584Z,0.276080012
2022-09-18T07:12:43.505Z,0.292320013
2022-09-18T07:13:47.355Z,0.300440013
2022-09-18T07:15:42.994Z,0.381640017
2022-09-18T07:17:24.385Z,0.129920006
2022-09-18T07:17:26.634Z,0.129920006
2022-09-18T07:18:21.809Z,0.251720011
2022-09-18T07:20:21.322Z,0.503440022
2022-09-18T07:21:14.922Z,0.479080021
2022-09-18T07:22:16.961Z,0.44660002
2022-09-18T07:23:15.030Z,0.349160016
2022-09-18T07:25:12.881Z,0.584640026
2022-09-18T07:26:15.207Z,0.519680023
2022-09-18T07:27:15.905Z,0.495320022
2022-09-18T07:28:17.782Z,0.592760026
2022-09-18T07:29:16.069Z,0.45472002
2022-09-18T07:30:17.290Z,0.487200022
2022-09-18T07:31:13.642Z,0.68208003
2022-09-18T07:32:18.087Z,0.568400025
2022-09-18T07:33:12.071Z,0.66584003
2022-09-18T07:35:09.778Z,0.487200022
2022-09-18T07:36:13.618Z,0.462840021
2022-09-18T07:37:11.121Z,0.462840021
2022-09-18T07:38:12.490Z,0.722680032
2022-09-18T07:40:10.500Z,0.633360028
2022-09-18T07:41:07.230Z,0.552160025
2022-09-18T07:42:10.792Z,0.43848002
2022-09-18T07:43:07.779Z,0.649600029
2022-09-18T07:44:07.900Z,0.690200031
2022-09-18T07:45:05.023Z,0.90132004
2022-09-18T07:46:07.065Z,0.730800033
2022-09-18T07:47:05.011Z,0.998760045
2022-09-18T07:48:05.626Z,0.89320004
2022-09-18T07:49:02.721Z,1.104320049
2022-09-18T07:50:04.561Z,1.079960108
2022-09-18T07:51:00.915Z,1.372280121
2022-09-18T07:52:02.031Z,1.461600065
2022-09-18T07:52:59.189Z,1.34792006
2022-09-18T07:54:58.053Z,0.844480038
2022-09-18T07:55:59.355Z,1.209880114
2022-09-18T07:57:22.798Z,-0.073080003
2022-09-18T07:58:02.810Z,0.868840039
2022-09-18T07:59:00.427Z,0.787640035
2022-09-18T08:00:02.534Z,0.576520026
2022-09-18T08:00:57.906Z,0.836360037
2022-09-18T08:01:57.890Z,0.941920042
2022-09-18T08:02:54.619Z,0.68208003
2022-09-18T08:03:55.069Z,0.527800024
2022-09-18T08:05:51.161Z,0.771400034
2022-09-18T08:06:46.574Z,0.917560041
2022-09-18T08:07:46.972Z,0.941920042
2022-09-18T08:08:42.235Z,0.730800033
2022-09-18T08:09:46.128Z,0.722680032
2022-09-18T08:10:39.500Z,0.812000036
2022-09-18T08:11:42.784Z,0.755160034
2022-09-18T08:12:35.969Z,0.812000036
2022-09-18T08:13:36.073Z,0.763280034
2022-09-18T08:14:34.265Z,0.868840039
2022-09-18T08:15:29.649Z,0.690200031
2022-09-18T08:16:32.521Z,0.600880027
2022-09-18T08:17:27.913Z,0.495320022
2022-09-18T08:18:31.852Z,0.625240028
2022-09-18T08:20:27.675Z,0.609000027
2022-09-18T08:21:21.917Z,0.617120028
2022-09-18T08:22:19.163Z,0.698320031
2022-09-18T08:23:18.633Z,0.462840021
2022-09-18T08:24:13.813Z,0.88508004
2022-09-18T08:25:14.212Z,0.722680032
2022-09-18T08:26:09.589Z,0.67396003
2022-09-18T08:27:15.277Z,0.479080021
2022-09-18T08:28:08.906Z,0.609000027
2022-09-18T08:30:03.277Z,0.560280025
2022-09-18T08:31:02.243Z,0.576520026
2022-09-18T08:32:05.484Z,0.66584003
2022-09-18T08:32:09.841Z,0.66584003
2022-09-18T08:32:59.043Z,0.690200031
2022-09-18T08:35:00.016Z,0.795760036
2022-09-18T08:35:52.695Z,0.803880036
2022-09-18T08:36:55.667Z,0.925680041
2022-09-18T08:37:48.222Z,0.706440032
2022-09-18T08:38:46.580Z,0.795760036
2022-09-18T08:41:16.054Z,-0.089320004
2022-09-18T08:41:55.823Z,1.144920111
2022-09-18T08:42:56.551Z,1.136800051
2022-09-18T08:43:51.859Z,0.933800042
2022-09-18T08:45:47.144Z,0.730800033
2022-09-18T08:46:45.832Z,0.66584003
2022-09-18T08:47:43.888Z,0.828240037
2022-09-18T08:48:40.071Z,0.917560041
2022-09-18T08:49:40.432Z,0.544040024
2022-09-18T08:50:38.582Z,0.763280034
2022-09-18T08:51:38.079Z,0.876960039
2022-09-18T08:52:31.459Z,0.844480038
2022-09-18T08:53:34.203Z,0.706440032
2022-09-18T08:54:26.651Z,0.88508004
2022-09-18T08:55:26.237Z,0.584640026
2022-09-18T08:56:22.946Z,0.470960021
2022-09-18T08:57:23.640Z,0.763280034
2022-09-18T08:58:18.716Z,0.66584003
2022-09-18T09:00:13.108Z,0.820120037
2022-09-18T09:01:13.122Z,1.031239986
2022-09-18T09:02:08.387Z,1.34792006
2022-09-18T09:03:08.058Z,1.656480074
2022-09-18T09:04:04.214Z,1.981280088
2022-09-18T09:05:04.735Z,2.224880219
2022-09-18T09:06:00.024Z,2.119320154
2022-09-18T09:07:02.785Z,1.469720125
2022-09-18T09:07:55.453Z,0.966280043
2022-09-18T09:08:57.868Z,1.282960057
2022-09-18T09:10:53.262Z,1.006880045
2022-09-18T09:13:36.986Z,0.803880036
2022-09-18T09:14:55.993Z,0.600880027
2022-09-18T09:14:56.616Z,0.600880027
2022-09-18T09:14:57.266Z,0.600880027
2022-09-18T09:15:37.661Z,1.063719988
2022-09-18T09:16:33.786Z,0.722680032
2022-09-18T09:17:30.873Z,1.104320049
2022-09-18T09:18:31.848Z,1.039360046
2022-09-18T09:19:27.045Z,1.047480106
2022-09-18T09:20:26.940Z,0.738920033
2022-09-18T09:21:21.624Z,0.600880027
2022-09-18T09:22:21.370Z,0.860720038
2022-09-18T09:23:16.782Z,0.982520044
2022-09-18T09:25:12.251Z,0.868840039
2022-09-18T09:26:13.437Z,0.511560023
2022-09-18T09:27:08.697Z,0.787640035
2022-09-18T09:28:11.381Z,0.958160043
2022-09-18T09:28:16.512Z,0.958160043
2022-09-18T09:30:04.314Z,1.023120046
2022-09-18T09:31:06.323Z,1.218000054
2022-09-18T09:31:58.982Z,1.193639994
2022-09-18T09:33:02.348Z,0.787640035
2022-09-18T09:33:55.641Z,0.917560041
2022-09-18T09:35:50.853Z,1.079960108
2022-09-18T09:36:54.877Z,0.966280043
2022-09-18T09:37:49.041Z,1.055600047
2022-09-18T09:38:52.241Z,1.209880114
2022-09-18T09:40:45.624Z,1.372280121
2022-09-18T09:41:41.859Z,1.526560068
2022-09-18T09:42:42.447Z,0.941920042
2022-09-18T09:43:41.087Z,0.186760008
2022-09-18T09:45:40.981Z,0.45472002
2022-09-18T09:46:36.488Z,0.324800014
2022-09-18T09:47:41.389Z,0.267960012
2022-09-18T09:48:36.065Z,0.503440022
2022-09-18T09:51:15.557Z,0.527800024
2022-09-18T09:53:18.004Z,0.324800014
2022-09-18T09:55:16.603Z,0.430360019
2022-09-18T09:56:14.769Z,0.324800014
2022-09-18T09:57:15.125Z,0.341040015
2022-09-18T09:58:11.669Z,0.592760026
2022-09-18T10:00:04.767Z,0.576520026
2022-09-18T10:01:04.126Z,0.535920024
2022-09-18T10:02:02.083Z,0.495320022
2022-09-18T10:02:57.797Z,0.722680032
2022-09-18T10:03:57.621Z,0.771400034
2022-09-18T10:04:52.010Z,0.625240028
2022-09-18T10:05:53.763Z,0.828240037
2022-09-18T10:06:51.003Z,0.779520035
2022-09-18T10:07:48.765Z,0.690200031
2022-09-18T10:08:48.872Z,0.576520026
2022-09-18T10:09:41.318Z,0.714560032
2022-09-18T10:10:43.142Z,0.535920024
2022-09-18T10:11:35.321Z,0.357280016
2022-09-18T10:12:42.228Z,0.414120018
2022-09-18T10:13:32.189Z,0.657720029
2022-09-18T10:14:26.731Z,0.828240037
2022-09-18T10:15:29.043Z,0.67396003
2022-09-18T10:16:21.590Z,0.45472002
2022-09-18T10:17:21.879Z,0.527800024
2022-09-18T10:18:17.274Z,0.406000018
2022-09-18T10:20:15.492Z,0.617120028
2022-09-18T10:21:09.888Z,0.503440022
2022-09-18T10:22:13.493Z,0.21924001
2022-09-18T10:23:05.559Z,0.276080012
2022-09-18T10:25:04.497Z,0.22736001
2022-09-18T10:26:04.122Z,0.081200004
2022-09-18T10:27:07.300Z,0.235480011
2022-09-18T10:27:59.988Z,0.324800014
2022-09-18T10:29:02.343Z,0.381640017
2022-09-18T10:29:54.224Z,0.308560014
2022-09-18T10:30:56.210Z,0.519680023
2022-09-18T10:31:49.444Z,0.45472002
2022-09-18T10:33:30.198Z,0.527800024
2022-09-18T10:36:30.149Z,0.397880018
2022-09-18T10:37:28.264Z,0.381640017
2022-09-18T10:38:28.794Z,0.324800014
2022-09-18T10:40:25.526Z,0.22736001
2022-09-18T10:41:20.718Z,0.45472002
2022-09-18T10:42:22.254Z,0.44660002
2022-09-18T10:43:18.463Z,0.381640017
2022-09-18T10:45:13.707Z,0.422240019
2022-09-18T10:46:12.150Z,0.316680014
2022-09-18T10:47:06.766Z,0.527800024
2022-09-18T10:48:07.437Z,0.251720011
2022-09-18T10:49:02.883Z,0.43848002
2022-09-18T10:50:04.463Z,0.462840021
2022-09-18T10:50:57.012Z,0.397880018
2022-09-18T10:51:56.165Z,0.430360019
2022-09-18T10:52:51.819Z,0.535920024
2022-09-18T10:53:51.300Z,0.430360019
2022-09-18T10:55:53.867Z,0.397880018
2022-09-18T10:55:56.100Z,0.397880018
2022-09-18T10:56:49.672Z,0.332920015
2022-09-18T10:57:43.901Z,0.43848002
2022-09-18T10:58:45.427Z,0.414120018
2022-09-18T10:59:37.189Z,0.324800014
2022-09-18T11:00:38.851Z,0.527800024
2022-09-18T11:01:31.439Z,0.44660002
2022-09-18T11:02:33.148Z,0.406000018
2022-09-18T11:03:25.786Z,0.68208003
2022-09-18T11:05:21.446Z,0.519680023
2022-09-18T11:06:24.666Z,0.560280025
2022-09-18T11:07:16.916Z,0.641480029
2022-09-18T11:08:15.765Z,0.535920024
2022-09-18T11:10:07.742Z,0.747040033
2022-09-18T11:11:08.955Z,0.820120037
2022-09-18T11:12:03.364Z,1.291079998
2022-09-18T11:13:00.612Z,1.372280121
2022-09-18T11:14:00.377Z,1.242360115
2022-09-18T11:15:53.071Z,1.128679991
2022-09-18T11:16:51.767Z,0.958160043
2022-09-18T11:17:51.254Z,1.055600047
2022-09-18T11:18:48.705Z,0.868840039
2022-09-18T11:19:40.663Z,0.787640035
2022-09-18T11:20:47.802Z,0.998760045
2022-09-18T11:21:39.685Z,1.088080049
2022-09-18T11:22:40.424Z,0.909440041
2022-09-18T11:23:34.863Z,1.006880045
2022-09-18T11:24:31.532Z,0.933800042
2022-09-18T11:25:33.471Z,1.291079998
2022-09-18T11:26:25.868Z,1.039360046
2022-09-18T11:28:30.156Z,1.096199989
2022-09-18T11:29:28.106Z,0.722680032
2022-09-18T11:30:28.030Z,1.071840048
2022-09-18T11:31:24.445Z,0.90132004
2022-09-18T11:32:23.807Z,1.039360046
2022-09-18T11:33:21.737Z,0.958160043
2022-09-18T11:35:15.586Z,0.958160043
2022-09-18T11:36:16.580Z,0.803880036
2022-09-18T11:37:12.012Z,0.779520035
2022-09-18T11:38:12.641Z,0.771400034
2022-09-18T11:39:07.954Z,0.552160025
2022-09-18T11:40:08.200Z,0.787640035
2022-09-18T11:41:04.440Z,0.779520035
2022-09-18T11:42:07.162Z,0.836360037
2022-09-18T11:42:59.895Z,0.747040033
2022-09-18T11:43:59.000Z,0.66584003
2022-09-18T11:45:53.634Z,0.722680032
2022-09-18T11:46:54.443Z,0.763280034
2022-09-18T11:47:50.093Z,0.714560032
2022-09-18T11:48:49.998Z,0.600880027
2022-09-18T11:50:45.783Z,0.641480029
2022-09-18T11:51:44.054Z,0.763280034
2022-09-18T11:52:43.033Z,0.67396003
2022-09-18T11:53:44.494Z,0.747040033
2022-09-18T11:54:42.905Z,0.925680041
2022-09-18T11:55:38.425Z,0.552160025
2022-09-18T11:56:40.638Z,0.88508004
2022-09-18T11:57:34.262Z,0.722680032
2022-09-18T11:58:31.690Z,0.66584003
2022-09-18T12:00:27.945Z,0.820120037
2022-09-18T12:01:31.419Z,0.828240037
2022-09-18T12:02:24.259Z,0.730800033
2022-09-18T12:03:21.938Z,0.941920042
2022-09-18T12:04:23.346Z,0.633360028
2022-09-18T12:05:19.038Z,0.90132004
2022-09-18T12:06:19.146Z,0.909440041
2022-09-18T12:07:14.559Z,0.844480038
2022-09-18T12:08:13.847Z,0.633360028
2022-09-18T12:09:09.154Z,0.722680032
2022-09-18T12:11:26.060Z,0.560280025
2022-09-18T12:12:29.639Z,0.544040024
2022-09-18T12:13:24.639Z,0.747040033